Time;durP1;ratioP1;P1;durP2;ratioP2;P2;SDS_P1;SDS_P2;PMS_P1;PMS_P2;Temp;Humidity;BMP_temperature;BMP_pressure;BME280_temperature;BME280_humidity;BME280_pressure;Samples;Min_cycle;Max_cycle;Signal;HPM_P1;HPM_P2
2021/09/03 00:01:23;;;;;;;2.58;1.00;;;;;;;;;;5027385;28;20103;-78
2021/09/03 00:03:50;;;;;;;1.00;1.00;;;;;;;;;;5030460;28;20088;-78
2021/09/03 00:06:17;;;;;;;0.90;0.90;;;;;;;;;;5015110;28;20042;-78
2021/09/03 00:08:44;;;;;;;1.95;0.95;;;;;;;;;;5029787;28;20379;-78
2021/09/03 00:11:11;;;;;;;0.90;0.90;;;;;;;;;;5029415;28;20047;-78
2021/09/03 00:13:38;;;;;;;0.90;0.90;;;;;;;;;;5064375;28;20033;-78
2021/09/03 00:16:05;;;;;;;1.85;1.00;;;;;;;;;;5046267;28;20080;-78
2021/09/03 00:18:31;;;;;;;0.77;0.77;;;;;;;;;;5029128;28;20065;-78
2021/09/03 00:20:58;;;;;;;1.40;0.90;;;;;;;;;;5044029;28;20100;-78
2021/09/03 00:23:24;;;;;;;1.73;0.90;;;;;;;;;;5030442;28;20485;-79
2021/09/03 00:25:52;;;;;;;0.82;0.82;;;;;;;;;;5027637;28;20045;-79
2021/09/03 00:28:19;;;;;;;1.10;1.10;;;;;;;;;;5014106;28;20119;-79
2021/09/03 00:30:45;;;;;;;1.35;1.00;;;;;;;;;;5029309;28;20034;-79
2021/09/03 00:33:12;;;;;;;0.98;0.98;;;;;;;;;;5044832;28;20033;-79
2021/09/03 00:35:40;;;;;;;1.00;1.00;;;;;;;;;;5030463;28;20037;-79
2021/09/03 00:38:06;;;;;;;1.98;1.00;;;;;;;;;;5060607;28;20411;-79
2021/09/03 00:40:33;;;;;;;1.10;1.00;;;;;;;;;;5028332;28;20029;-79
2021/09/03 00:43:00;;;;;;;0.95;0.95;;;;;;;;;;5022256;28;20545;-79
2021/09/03 00:45:26;;;;;;;1.10;1.10;;;;;;;;;;5034248;28;20575;-79
2021/09/03 00:47:53;;;;;;;0.80;0.80;;;;;;;;;;5028294;28;20045;-79
2021/09/03 00:50:19;;;;;;;1.70;1.00;;;;;;;;;;5024917;28;20096;-78
2021/09/03 00:52:46;;;;;;;1.25;0.90;;;;;;;;;;5037509;28;20069;-78
2021/09/03 00:55:12;;;;;;;0.93;0.90;;;;;;;;;;5028989;28;20037;-79
2021/09/03 00:57:39;;;;;;;1.10;1.10;;;;;;;;;;5017303;28;20096;-79
2021/09/03 01:00:07;;;;;;;1.00;1.00;;;;;;;;;;5057310;28;20045;-79
2021/09/03 01:02:35;;;;;;;0.90;0.90;;;;;;;;;;5027224;28;20498;-79
2021/09/03 01:05:02;;;;;;;1.35;0.80;;;;;;;;;;5030204;28;20048;-78
2021/09/03 01:07:29;;;;;;;0.80;0.80;;;;;;;;;;5030554;28;20269;-78
2021/09/03 01:09:55;;;;;;;0.80;0.80;;;;;;;;;;5032176;28;20060;-78
2021/09/03 01:12:22;;;;;;;0.90;0.90;;;;;;;;;;5041461;28;20099;-78
2021/09/03 01:14:49;;;;;;;1.02;1.02;;;;;;;;;;5029003;28;20041;-78
2021/09/03 01:17:15;;;;;;;1.48;1.00;;;;;;;;;;5029913;28;20042;-78
2021/09/03 01:19:42;;;;;;;1.00;1.00;;;;;;;;;;5024731;28;20037;-78
2021/09/03 01:22:09;;;;;;;1.10;1.10;;;;;;;;;;5028820;28;20415;-78
2021/09/03 01:24:36;;;;;;;1.20;1.10;;;;;;;;;;5023621;28;20537;-79
2021/09/03 01:27:03;;;;;;;1.30;1.23;;;;;;;;;;5028777;28;20095;-78
2021/09/03 01:29:29;;;;;;;1.08;1.08;;;;;;;;;;5025569;28;20072;-79
2021/09/03 01:31:56;;;;;;;1.20;1.10;;;;;;;;;;5027924;28;20434;-79
2021/09/03 01:34:23;;;;;;;2.30;1.05;;;;;;;;;;5030946;28;20037;-79
2021/09/03 01:36:49;;;;;;;1.00;1.00;;;;;;;;;;5010947;28;20559;-79
2021/09/03 01:39:16;;;;;;;1.00;1.00;;;;;;;;;;5021565;28;20216;-79
2021/09/03 01:41:43;;;;;;;1.35;1.00;;;;;;;;;;5047852;28;20104;-79
2021/09/03 01:44:10;;;;;;;0.90;0.90;;;;;;;;;;5039490;28;20045;-79
2021/09/03 01:46:37;;;;;;;1.02;1.02;;;;;;;;;;5029866;28;20111;-78
2021/09/03 01:49:03;;;;;;;1.50;1.35;;;;;;;;;;5025788;28;20042;-78
2021/09/03 01:51:30;;;;;;;1.00;1.00;;;;;;;;;;5029190;28;20052;-78
2021/09/03 01:53:57;;;;;;;1.20;1.20;;;;;;;;;;5041504;28;20140;-78
2021/09/03 01:56:23;;;;;;;1.00;0.93;;;;;;;;;;5027936;28;20433;-78
2021/09/03 01:58:50;;;;;;;0.90;0.90;;;;;;;;;;5029024;28;20465;-78
2021/09/03 02:01:16;;;;;;;1.00;1.00;;;;;;;;;;5057884;28;20033;-78
2021/09/03 02:03:43;;;;;;;1.30;1.30;;;;;;;;;;5029567;28;20045;-78
2021/09/03 02:06:10;;;;;;;0.95;0.95;;;;;;;;;;5044394;28;20121;-79
2021/09/03 02:08:37;;;;;;;1.80;1.40;;;;;;;;;;5030186;28;20170;-79
2021/09/03 02:11:03;;;;;;;1.13;1.13;;;;;;;;;;5027175;28;20099;-79
2021/09/03 02:13:30;;;;;;;1.10;1.10;;;;;;;;;;5011045;28;20042;-79
2021/09/03 02:15:57;;;;;;;1.00;1.00;;;;;;;;;;5026011;28;20393;-79
2021/09/03 02:18:23;;;;;;;1.27;1.17;;;;;;;;;;5025777;28;20037;-79
2021/09/03 02:20:50;;;;;;;1.38;0.93;;;;;;;;;;5029268;28;20072;-79
2021/09/03 02:23:16;;;;;;;1.10;1.10;;;;;;;;;;5027688;28;20417;-78
2021/09/03 02:25:43;;;;;;;1.40;1.40;;;;;;;;;;5026050;28;20049;-78
2021/09/03 02:28:10;;;;;;;1.27;1.00;;;;;;;;;;5029334;28;20449;-78
2021/09/03 02:30:37;;;;;;;1.10;1.10;;;;;;;;;;5027562;28;20045;-78
2021/09/03 02:33:03;;;;;;;1.27;1.17;;;;;;;;;;5043315;28;20091;-78
2021/09/03 02:35:30;;;;;;;1.27;1.17;;;;;;;;;;5029136;28;20654;-78
2021/09/03 02:37:57;;;;;;;3.80;1.25;;;;;;;;;;5009874;28;20585;-78
2021/09/03 02:40:24;;;;;;;1.45;1.10;;;;;;;;;;5024841;28;20038;-78
2021/09/03 02:42:51;;;;;;;1.02;1.00;;;;;;;;;;5028624;28;20064;-78
2021/09/03 02:45:18;;;;;;;1.00;1.00;;;;;;;;;;5026790;28;20049;-78
2021/09/03 02:47:46;;;;;;;1.02;1.02;;;;;;;;;;5036276;28;20037;-78
2021/09/03 02:50:13;;;;;;;2.97;1.00;;;;;;;;;;5027071;28;20501;-78
2021/09/03 02:52:40;;;;;;;1.10;1.10;;;;;;;;;;5026424;28;20707;-78
2021/09/03 02:55:07;;;;;;;0.90;0.90;;;;;;;;;;5050596;28;20068;-78
2021/09/03 02:57:34;;;;;;;1.77;1.00;;;;;;;;;;5031865;28;20033;-78
2021/09/03 03:00:00;;;;;;;0.90;0.90;;;;;;;;;;5008792;28;20489;-78
2021/09/03 03:02:27;;;;;;;1.23;1.23;;;;;;;;;;5026049;28;20073;-78
2021/09/03 03:04:54;;;;;;;3.63;1.08;;;;;;;;;;5028452;28;20124;-78
2021/09/03 03:07:20;;;;;;;1.30;1.10;;;;;;;;;;5029262;28;20037;-78
2021/09/03 03:09:47;;;;;;;1.23;1.23;;;;;;;;;;5010159;28;20055;-78
2021/09/03 03:12:15;;;;;;;1.10;1.10;;;;;;;;;;5041485;28;20052;-78
2021/09/03 03:14:41;;;;;;;1.30;1.30;;;;;;;;;;5027865;28;20069;-78
2021/09/03 03:17:08;;;;;;;3.30;1.30;;;;;;;;;;5021465;28;20033;-78
2021/09/03 03:19:35;;;;;;;1.30;1.30;;;;;;;;;;5026707;28;20029;-78
2021/09/03 03:22:02;;;;;;;1.17;1.17;;;;;;;;;;5058417;28;20044;-78
2021/09/03 03:24:29;;;;;;;1.20;1.20;;;;;;;;;;5026663;28;20092;-78
2021/09/03 03:26:56;;;;;;;2.45;1.10;;;;;;;;;;5055758;28;20249;-78
2021/09/03 03:29:24;;;;;;;1.60;1.10;;;;;;;;;;5025374;28;20045;-78
2021/09/03 03:31:50;;;;;;;1.20;1.20;;;;;;;;;;5058741;28;20103;-78
2021/09/03 03:34:17;;;;;;;2.08;1.35;;;;;;;;;;5036911;28;20037;-78
2021/09/03 03:36:44;;;;;;;1.45;1.45;;;;;;;;;;5030583;28;20485;-78
2021/09/03 03:39:11;;;;;;;1.20;1.20;;;;;;;;;;5043438;28;20045;-78
2021/09/03 03:41:38;;;;;;;1.35;1.25;;;;;;;;;;5027555;28;20057;-78
2021/09/03 03:44:05;;;;;;;1.10;1.10;;;;;;;;;;5030963;28;20041;-78
2021/09/03 03:46:32;;;;;;;2.05;1.20;;;;;;;;;;5029124;28;20044;-78
2021/09/03 03:48:58;;;;;;;2.08;1.05;;;;;;;;;;5025743;28;20131;-78
2021/09/03 03:51:25;;;;;;;1.77;1.17;;;;;;;;;;5027752;28;20046;-78
2021/09/03 03:53:52;;;;;;;2.65;1.50;;;;;;;;;;5029484;28;20172;-78
2021/09/03 03:56:18;;;;;;;1.08;1.08;;;;;;;;;;5014332;28;20038;-79
2021/09/03 03:58:45;;;;;;;1.48;1.20;;;;;;;;;;5030701;28;20038;-78
2021/09/03 04:01:12;;;;;;;1.40;1.30;;;;;;;;;;5032424;28;20481;-78
2021/09/03 04:03:39;;;;;;;1.40;1.30;;;;;;;;;;5030343;28;20029;-78
2021/09/03 04:06:06;;;;;;;2.03;1.65;;;;;;;;;;5021224;28;20091;-78
2021/09/03 04:08:34;;;;;;;1.27;1.27;;;;;;;;;;5032474;28;20076;-78
2021/09/03 04:11:01;;;;;;;1.10;1.10;;;;;;;;;;5028264;28;20233;-78
2021/09/03 04:13:27;;;;;;;1.35;1.25;;;;;;;;;;5029207;28;20099;-78
2021/09/03 04:15:54;;;;;;;1.95;1.25;;;;;;;;;;5031106;28;20029;-78
2021/09/03 04:18:21;;;;;;;1.27;1.13;;;;;;;;;;5059798;28;20045;-78
2021/09/03 04:20:47;;;;;;;1.10;1.10;;;;;;;;;;5032273;28;20493;-78
2021/09/03 04:23:14;;;;;;;1.38;1.27;;;;;;;;;;5030115;28;20029;-78
2021/09/03 04:25:41;;;;;;;2.47;1.45;;;;;;;;;;5029109;28;20041;-78
2021/09/03 04:28:07;;;;;;;1.95;1.20;;;;;;;;;;5049349;28;20068;-78
2021/09/03 04:30:34;;;;;;;1.30;1.30;;;;;;;;;;5036591;28;20103;-78
2021/09/03 04:33:01;;;;;;;1.20;1.20;;;;;;;;;;5060375;28;20361;-78
2021/09/03 04:35:27;;;;;;;1.13;1.13;;;;;;;;;;5029148;28;20037;-78
2021/09/03 04:37:54;;;;;;;1.02;1.02;;;;;;;;;;5024049;28;20042;-78
2021/09/03 04:40:22;;;;;;;1.30;1.30;;;;;;;;;;5059352;28;20053;-78
2021/09/03 04:42:48;;;;;;;2.72;1.10;;;;;;;;;;5030495;28;20441;-78
2021/09/03 04:45:16;;;;;;;2.83;1.10;;;;;;;;;;5029796;28;20046;-78
2021/09/03 04:47:42;;;;;;;1.20;1.10;;;;;;;;;;5026953;28;20042;-78
2021/09/03 04:50:11;;;;;;;1.45;1.27;;;;;;;;;;5046385;28;20099;-78
2021/09/03 04:52:38;;;;;;;1.00;1.00;;;;;;;;;;5042636;28;20047;-78
2021/09/03 04:55:04;;;;;;;0.93;0.93;;;;;;;;;;5031905;28;20099;-78
2021/09/03 04:57:37;;;;;;;1.30;1.30;;;;;;;;;;5030001;28;20041;-78
2021/09/03 05:00:04;;;;;;;1.92;1.83;;;;;;;;;;5030048;28;20441;-78
2021/09/03 05:02:30;;;;;;;1.48;1.48;;;;;;;;;;5029729;28;20408;-78
2021/09/03 05:04:57;;;;;;;1.75;1.65;;;;;;;;;;5027171;28;20087;-78
2021/09/03 05:07:23;;;;;;;1.50;1.50;;;;;;;;;;5028583;28;20083;-78
2021/09/03 05:09:50;;;;;;;2.08;1.45;;;;;;;;;;5029334;28;20033;-78
2021/09/03 05:12:17;;;;;;;1.80;1.55;;;;;;;;;;5021055;28;20038;-78
2021/09/03 05:14:43;;;;;;;1.50;1.50;;;;;;;;;;5012897;28;20107;-78
2021/09/03 05:17:10;;;;;;;1.55;1.55;;;;;;;;;;5011505;28;20391;-78
2021/09/03 05:19:36;;;;;;;1.73;1.63;;;;;;;;;;5023477;28;20060;-78
2021/09/03 05:22:03;;;;;;;1.75;1.17;;;;;;;;;;5030481;28;20042;-78
2021/09/03 05:24:30;;;;;;;3.72;1.40;;;;;;;;;;5028206;28;20030;-78
2021/09/03 05:26:56;;;;;;;1.48;1.33;;;;;;;;;;5028387;28;20037;-78
2021/09/03 05:29:23;;;;;;;1.30;1.20;;;;;;;;;;5029473;28;20269;-78
2021/09/03 05:31:49;;;;;;;1.73;1.52;;;;;;;;;;5028994;28;20478;-78
2021/09/03 05:34:16;;;;;;;1.88;1.77;;;;;;;;;;5030824;28;20045;-78
2021/09/03 05:36:42;;;;;;;3.83;1.40;;;;;;;;;;5042837;28;20038;-78
2021/09/03 05:39:09;;;;;;;1.58;1.38;;;;;;;;;;5029205;28;20091;-78
2021/09/03 05:41:36;;;;;;;1.33;1.10;;;;;;;;;;5032037;28;20033;-78
2021/09/03 05:44:03;;;;;;;1.70;1.60;;;;;;;;;;5018853;28;20033;-78
2021/09/03 05:46:29;;;;;;;1.38;1.27;;;;;;;;;;5023427;28;20486;-78
2021/09/03 05:48:56;;;;;;;3.40;1.13;;;;;;;;;;5054610;28;20033;-78
2021/09/03 05:51:23;;;;;;;1.85;1.00;;;;;;;;;;5045575;28;20045;-78
2021/09/03 05:53:49;;;;;;;1.40;1.40;;;;;;;;;;5027697;28;20038;-78
2021/09/03 05:56:16;;;;;;;2.38;1.10;;;;;;;;;;5027868;28;20083;-78
2021/09/03 05:58:43;;;;;;;1.58;1.48;;;;;;;;;;5028922;28;20037;-78
2021/09/03 06:01:09;;;;;;;3.00;1.65;;;;;;;;;;5025989;28;20671;-78
2021/09/03 06:03:36;;;;;;;1.80;1.70;;;;;;;;;;5028882;28;20122;-78
2021/09/03 06:06:03;;;;;;;1.60;1.48;;;;;;;;;;5058037;28;20044;-78
2021/09/03 06:08:29;;;;;;;1.02;1.02;;;;;;;;;;5030084;28;20092;-78
2021/09/03 06:10:56;;;;;;;2.72;1.30;;;;;;;;;;5030041;28;20049;-78
2021/09/03 06:13:23;;;;;;;1.70;1.60;;;;;;;;;;5025029;28;20060;-78
2021/09/03 06:15:49;;;;;;;1.98;1.88;;;;;;;;;;5030195;28;20113;-78
2021/09/03 06:18:16;;;;;;;1.10;1.10;;;;;;;;;;5027474;28;20551;-78
2021/09/03 06:20:43;;;;;;;1.73;1.45;;;;;;;;;;5030046;28;20745;-78
2021/09/03 06:23:09;;;;;;;3.65;1.73;;;;;;;;;;5062033;28;20559;-78
2021/09/03 06:25:36;;;;;;;1.50;1.40;;;;;;;;;;5028671;28;20056;-78
2021/09/03 06:28:03;;;;;;;1.50;1.40;;;;;;;;;;5061470;28;20478;-78
2021/09/03 06:30:30;;;;;;;1.48;1.42;;;;;;;;;;5030151;28;20430;-78
2021/09/03 06:32:56;;;;;;;4.78;1.60;;;;;;;;;;5042695;28;20083;-78
2021/09/03 06:35:23;;;;;;;5.20;2.65;;;;;;;;;;5029331;28;20044;-78
2021/09/03 06:37:50;;;;;;;3.28;2.00;;;;;;;;;;5027759;28;20055;-78
2021/09/03 06:40:16;;;;;;;2.47;2.22;;;;;;;;;;5028736;28;20049;-78
2021/09/03 06:42:43;;;;;;;2.65;1.95;;;;;;;;;;5029530;28;20037;-78
2021/09/03 06:45:11;;;;;;;1.70;1.00;;;;;;;;;;5028063;28;20322;-78
2021/09/03 06:47:38;;;;;;;1.85;1.58;;;;;;;;;;5029126;28;20041;-78
2021/09/03 06:50:05;;;;;;;1.25;1.25;;;;;;;;;;5028749;28;20045;-78
2021/09/03 06:52:32;;;;;;;1.15;1.10;;;;;;;;;;5029081;28;20048;-78
2021/09/03 06:54:59;;;;;;;1.10;1.10;;;;;;;;;;5029143;28;20120;-78
2021/09/03 06:57:27;;;;;;;3.85;0.90;;;;;;;;;;5027995;28;20375;-78
2021/09/03 06:59:54;;;;;;;1.05;0.82;;;;;;;;;;5029858;28;20037;-78
2021/09/03 07:02:20;;;;;;;1.00;1.00;;;;;;;;;;5027451;28;20092;-78
2021/09/03 07:04:47;;;;;;;1.88;1.42;;;;;;;;;;5029446;28;20095;-78
2021/09/03 07:07:14;;;;;;;0.90;0.90;;;;;;;;;;5029593;28;20501;-78
2021/09/03 07:09:51;;;;;;;1.05;1.05;;;;;;;;;;5027606;28;20730;-78
2021/09/03 07:12:18;;;;;;;1.95;1.00;;;;;;;;;;5027413;28;20517;-78
2021/09/03 07:14:44;;;;;;;2.55;1.08;;;;;;;;;;5027343;28;20486;-78
2021/09/03 07:17:11;;;;;;;1.85;1.10;;;;;;;;;;5028660;28;20425;-78
2021/09/03 07:19:38;;;;;;;2.08;1.10;;;;;;;;;;5028225;28;20374;-78
2021/09/03 07:22:05;;;;;;;3.72;1.30;;;;;;;;;;5027093;28;20037;-78
2021/09/03 07:24:32;;;;;;;1.33;1.00;;;;;;;;;;5029059;28;20037;-78
2021/09/03 07:26:58;;;;;;;2.78;1.20;;;;;;;;;;5059345;28;20037;-78
2021/09/03 07:29:26;;;;;;;4.43;1.00;;;;;;;;;;5027726;28;20040;-78
2021/09/03 07:31:53;;;;;;;1.77;0.90;;;;;;;;;;5030365;28;20493;-78
2021/09/03 07:34:19;;;;;;;2.92;0.90;;;;;;;;;;5057961;28;20809;-78
2021/09/03 07:36:46;;;;;;;3.90;0.95;;;;;;;;;;5028168;28;20033;-78
2021/09/03 07:39:17;;;;;;;1.88;0.90;;;;;;;;;;5060397;28;20506;-78
2021/09/03 07:41:45;;;;;;;0.98;0.90;;;;;;;;;;5027572;28;20111;-78
2021/09/03 07:44:12;;;;;;;2.83;1.27;;;;;;;;;;5029091;28;20433;-78
2021/09/03 07:46:39;;;;;;;1.92;1.10;;;;;;;;;;5043485;28;20041;-78
2021/09/03 07:49:06;;;;;;;6.93;1.27;;;;;;;;;;5026383;28;20071;-78
2021/09/03 07:51:33;;;;;;;6.28;1.88;;;;;;;;;;5028814;28;20084;-78
2021/09/03 07:54:00;;;;;;;8.30;1.30;;;;;;;;;;5026359;28;20037;-78
2021/09/03 07:56:27;;;;;;;3.92;1.00;;;;;;;;;;5007702;28;20038;-78
2021/09/03 07:58:53;;;;;;;3.35;1.40;;;;;;;;;;5027653;28;20041;-78
2021/09/03 08:01:20;;;;;;;6.93;1.00;;;;;;;;;;5021512;28;20088;-78
2021/09/03 08:03:47;;;;;;;1.58;1.20;;;;;;;;;;5028722;28;20549;-78
2021/09/03 08:06:13;;;;;;;4.80;1.52;;;;;;;;;;5026019;28;20091;-78
2021/09/03 08:08:40;;;;;;;2.05;0.90;;;;;;;;;;5028262;28;20046;-79
2021/09/03 08:11:07;;;;;;;5.95;0.95;;;;;;;;;;5027879;28;20052;-79
2021/09/03 08:13:34;;;;;;;1.80;0.82;;;;;;;;;;5028675;28;20065;-79
2021/09/03 08:16:02;;;;;;;2.25;1.10;;;;;;;;;;5030186;28;20132;-79
2021/09/03 08:18:29;;;;;;;1.95;1.38;;;;;;;;;;5025639;28;20120;-79
2021/09/03 08:20:56;;;;;;;2.20;1.33;;;;;;;;;;5029026;28;20048;-79
2021/09/03 08:23:23;;;;;;;4.55;1.63;;;;;;;;;;5028614;28;20041;-79
2021/09/03 08:25:49;;;;;;;6.25;1.00;;;;;;;;;;5030930;28;20048;-79
2021/09/03 08:28:16;;;;;;;2.88;0.90;;;;;;;;;;5032407;28;20099;-79
2021/09/03 08:30:43;;;;;;;2.30;0.90;;;;;;;;;;5030346;28;20037;-79
2021/09/03 08:33:09;;;;;;;2.25;1.33;;;;;;;;;;5040166;28;20144;-79
2021/09/03 08:35:36;;;;;;;3.70;0.80;;;;;;;;;;5011535;28;20558;-79
2021/09/03 08:38:03;;;;;;;2.60;0.90;;;;;;;;;;5017509;28;20048;-79
2021/09/03 08:40:29;;;;;;;1.20;0.80;;;;;;;;;;5030931;28;20434;-79
2021/09/03 08:42:57;;;;;;;0.90;0.90;;;;;;;;;;5029538;28;20037;-79
2021/09/03 08:45:23;;;;;;;0.88;0.80;;;;;;;;;;5030055;28;20509;-79
2021/09/03 08:47:50;;;;;;;0.80;0.80;;;;;;;;;;5031510;28;20061;-79
2021/09/03 08:50:17;;;;;;;0.80;0.80;;;;;;;;;;5031780;28;20076;-79
2021/09/03 08:52:48;;;;;;;0.80;0.80;;;;;;;;;;5030917;28;20453;-79
2021/09/03 08:55:15;;;;;;;0.80;0.80;;;;;;;;;;5031006;28;20041;-79
2021/09/03 08:57:42;;;;;;;0.80;0.80;;;;;;;;;;5030083;28;20529;-79
2021/09/03 09:00:12;;;;;;;0.80;0.80;;;;;;;;;;5031552;28;20037;-79
2021/09/03 09:02:56;;;;;;;0.80;0.80;;;;;;;;;;5029919;28;20029;-79
2021/09/03 09:05:43;;;;;;;0.80;0.80;;;;;;;;;;5029818;28;20498;-79
2021/09/03 09:08:10;;;;;;;0.70;0.70;;;;;;;;;;5046731;28;20053;-79
2021/09/03 09:10:57;;;;;;;0.80;0.80;;;;;;;;;;5031701;28;20060;-79
2021/09/03 09:13:25;;;;;;;0.85;0.70;;;;;;;;;;5031051;28;20045;-79
2021/09/03 09:16:07;;;;;;;0.82;0.70;;;;;;;;;;5031485;28;20034;-79
2021/09/03 09:18:35;;;;;;;1.85;0.70;;;;;;;;;;5043599;28;20482;-79
2021/09/03 09:21:05;;;;;;;0.70;0.70;;;;;;;;;;5032394;28;20108;-79
2021/09/03 09:23:39;;;;;;;0.70;0.70;;;;;;;;;;5061530;28;20065;-79
2021/09/03 09:26:05;;;;;;;0.60;0.60;;;;;;;;;;5032444;28;20522;-79
2021/09/03 09:28:34;;;;;;;0.68;0.60;;;;;;;;;;5031634;28;20056;-79
2021/09/03 09:31:02;;;;;;;1.08;0.70;;;;;;;;;;5028210;28;20429;-79
2021/09/03 09:33:28;;;;;;;1.35;0.70;;;;;;;;;;5063304;28;20041;-79
2021/09/03 09:35:56;;;;;;;0.70;0.70;;;;;;;;;;5028367;28;20057;-79
2021/09/03 09:38:24;;;;;;;1.05;0.75;;;;;;;;;;5030632;28;20042;-79
2021/09/03 09:40:52;;;;;;;2.03;0.70;;;;;;;;;;5031106;28;20132;-80
2021/09/03 09:43:28;;;;;;;0.60;0.60;;;;;;;;;;5028938;28;20091;-80
2021/09/03 09:46:07;;;;;;;1.25;0.70;;;;;;;;;;5029125;28;20037;-80
2021/09/03 09:49:03;;;;;;;0.70;0.70;;;;;;;;;;5029673;28;20041;-79
2021/09/03 09:51:31;;;;;;;0.75;0.75;;;;;;;;;;5023855;28;20054;-79
2021/09/03 09:53:59;;;;;;;0.82;0.80;;;;;;;;;;5058364;28;20061;-79
2021/09/03 09:56:27;;;;;;;0.68;0.68;;;;;;;;;;5012844;28;20041;-79
2021/09/03 09:58:55;;;;;;;0.70;0.70;;;;;;;;;;5029457;28;20052;-79
2021/09/03 10:01:22;;;;;;;0.77;0.77;;;;;;;;;;5035665;28;20099;-79
2021/09/03 10:03:51;;;;;;;0.63;0.60;;;;;;;;;;5028995;28;20544;-79
2021/09/03 10:06:20;;;;;;;0.70;0.70;;;;;;;;;;5029085;28;20046;-79
2021/09/03 10:08:48;;;;;;;0.70;0.70;;;;;;;;;;5028268;28;20501;-79
2021/09/03 10:11:16;;;;;;;1.52;0.60;;;;;;;;;;5041736;28;20064;-79
2021/09/03 10:13:42;;;;;;;1.92;0.70;;;;;;;;;;5030991;28;20055;-79
2021/09/03 10:16:09;;;;;;;0.60;0.60;;;;;;;;;;5023646;28;20041;-79
2021/09/03 10:18:38;;;;;;;1.75;0.50;;;;;;;;;;5029128;28;20520;-79
2021/09/03 10:21:05;;;;;;;1.85;0.57;;;;;;;;;;5027470;28;20037;-79
2021/09/03 10:23:50;;;;;;;0.63;0.63;;;;;;;;;;5029234;28;20041;-79
2021/09/03 10:26:19;;;;;;;0.60;0.60;;;;;;;;;;5028779;28;20041;-79
2021/09/03 10:28:46;;;;;;;0.55;0.50;;;;;;;;;;5059315;28;20091;-79
2021/09/03 10:31:18;;;;;;;0.60;0.60;;;;;;;;;;5027560;28;20084;-79
2021/09/03 10:33:46;;;;;;;0.60;0.60;;;;;;;;;;5043750;28;20041;-79
2021/09/03 10:36:13;;;;;;;1.23;0.60;;;;;;;;;;5011715;28;21075;-79
2021/09/03 10:38:43;;;;;;;2.05;0.70;;;;;;;;;;5030093;28;20608;-79
2021/09/03 10:41:29;;;;;;;0.70;0.70;;;;;;;;;;5027679;28;20125;-79
2021/09/03 10:43:56;;;;;;;1.75;0.60;;;;;;;;;;5006027;28;20041;-80
2021/09/03 10:46:23;;;;;;;0.77;0.60;;;;;;;;;;5022189;28;20068;-79
2021/09/03 10:48:51;;;;;;;0.60;0.60;;;;;;;;;;5027842;28;20076;-79
2021/09/03 10:51:37;;;;;;;1.25;0.65;;;;;;;;;;5060152;28;20045;-79
2021/09/03 10:54:19;;;;;;;6.68;0.70;;;;;;;;;;5028502;28;20037;-79
2021/09/03 10:56:53;;;;;;;0.60;0.60;;;;;;;;;;5027739;28;20040;-79
2021/09/03 10:59:20;;;;;;;0.63;0.63;;;;;;;;;;5028673;28;20095;-79
2021/09/03 11:01:51;;;;;;;2.75;0.60;;;;;;;;;;5030451;28;20033;-79
2021/09/03 11:04:18;;;;;;;0.50;0.50;;;;;;;;;;5042406;28;20033;-79
2021/09/03 11:06:51;;;;;;;0.60;0.60;;;;;;;;;;5028362;28;20037;-79
2021/09/03 11:09:23;;;;;;;0.60;0.50;;;;;;;;;;5028375;28;20039;-79
2021/09/03 11:12:01;;;;;;;0.75;0.73;;;;;;;;;;5028496;28;20041;-79
2021/09/03 11:14:29;;;;;;;0.73;0.52;;;;;;;;;;5025320;28;20572;-79
2021/09/03 11:16:56;;;;;;;0.50;0.50;;;;;;;;;;5023727;28;20091;-79
2021/09/03 11:19:23;;;;;;;0.55;0.55;;;;;;;;;;5027730;28;20129;-80
2021/09/03 11:22:09;;;;;;;0.50;0.50;;;;;;;;;;5029940;28;20045;-80
2021/09/03 11:24:40;;;;;;;1.08;0.55;;;;;;;;;;5027620;28;20037;-80
2021/09/03 11:27:12;;;;;;;0.95;0.40;;;;;;;;;;5029935;28;20402;-80
2021/09/03 11:29:38;;;;;;;0.57;0.50;;;;;;;;;;5027901;28;20389;-80
2021/09/03 11:32:16;;;;;;;1.70;0.50;;;;;;;;;;5011569;28;20069;-80
2021/09/03 11:34:49;;;;;;;0.40;0.40;;;;;;;;;;5029341;28;20053;-80
2021/09/03 11:37:17;;;;;;;0.40;0.40;;;;;;;;;;5028576;28;20438;-80
2021/09/03 11:39:47;;;;;;;0.40;0.40;;;;;;;;;;5027204;28;20046;-80
2021/09/03 11:42:21;;;;;;;1.08;0.50;;;;;;;;;;5029013;28;20329;-80
2021/09/03 11:45:00;;;;;;;0.40;0.40;;;;;;;;;;5024668;28;20460;-80
2021/09/03 11:47:34;;;;;;;0.47;0.47;;;;;;;;;;5028950;28;20041;-80
2021/09/03 11:50:20;;;;;;;0.50;0.50;;;;;;;;;;5046206;28;20037;-80
2021/09/03 11:52:48;;;;;;;0.50;0.50;;;;;;;;;;5030618;28;20037;-80
2021/09/03 11:55:17;;;;;;;1.13;0.47;;;;;;;;;;5030280;28;20095;-80
2021/09/03 11:57:56;;;;;;;0.40;0.40;;;;;;;;;;5031902;28;20030;-80
2021/09/03 12:00:30;;;;;;;0.40;0.40;;;;;;;;;;5029122;28;20084;-80
2021/09/03 12:02:57;;;;;;;0.40;0.40;;;;;;;;;;5033462;28;20037;-80
2021/09/03 12:05:24;;;;;;;0.40;0.40;;;;;;;;;;5062993;28;20034;-80
2021/09/03 12:08:24;;;;;;;0.40;0.40;;;;;;;;;;5033181;28;20045;-80
2021/09/03 12:11:07;;;;;;;0.40;0.40;;;;;;;;;;4990918;28;20053;-80
2021/09/03 12:13:34;;;;;;;0.50;0.50;;;;;;;;;;5061968;28;20049;-80
2021/09/03 12:16:06;;;;;;;0.50;0.40;;;;;;;;;;5031709;28;20433;-80
2021/09/03 12:18:35;;;;;;;0.40;0.40;;;;;;;;;;5028813;28;20076;-80
2021/09/03 12:21:06;;;;;;;0.40;0.40;;;;;;;;;;5032340;28;20389;-80
2021/09/03 12:23:35;;;;;;;0.50;0.50;;;;;;;;;;5050847;28;20403;-80
2021/09/03 12:26:03;;;;;;;0.40;0.40;;;;;;;;;;5064203;28;20049;-80
2021/09/03 12:28:30;;;;;;;0.40;0.40;;;;;;;;;;5015795;28;20045;-80
2021/09/03 12:30:57;;;;;;;0.40;0.40;;;;;;;;;;5032527;28;20539;-80
2021/09/03 12:33:25;;;;;;;0.40;0.40;;;;;;;;;;5032197;28;20103;-80
2021/09/03 12:35:52;;;;;;;1.10;0.40;;;;;;;;;;5013094;28;20050;-80
2021/09/03 12:38:36;;;;;;;0.40;0.40;;;;;;;;;;5032036;28;20042;-80
2021/09/03 12:41:03;;;;;;;1.45;0.40;;;;;;;;;;5030785;28;20041;-80
2021/09/03 12:43:31;;;;;;;0.40;0.40;;;;;;;;;;5032153;28;20041;-80
2021/09/03 12:45:57;;;;;;;0.40;0.40;;;;;;;;;;5030781;28;20733;-80
2021/09/03 12:48:24;;;;;;;0.40;0.40;;;;;;;;;;5030300;28;20557;-80
2021/09/03 12:50:52;;;;;;;0.40;0.40;;;;;;;;;;5033212;28;20113;-80
2021/09/03 12:53:20;;;;;;;0.40;0.40;;;;;;;;;;5030719;28;20517;-80
2021/09/03 12:55:47;;;;;;;0.50;0.40;;;;;;;;;;5030374;28;20042;-80
2021/09/03 12:58:14;;;;;;;0.40;0.40;;;;;;;;;;5063168;28;20041;-80
2021/09/03 13:00:41;;;;;;;0.40;0.40;;;;;;;;;;5025416;28;20041;-80
2021/09/03 13:03:08;;;;;;;0.32;0.30;;;;;;;;;;5032236;28;20033;-80
2021/09/03 13:05:36;;;;;;;0.45;0.45;;;;;;;;;;5030419;28;20037;-80
2021/09/03 13:08:04;;;;;;;1.67;0.40;;;;;;;;;;5031059;28;20045;-80
2021/09/03 13:10:31;;;;;;;0.40;0.40;;;;;;;;;;5043514;28;20045;-80
2021/09/03 13:12:58;;;;;;;0.40;0.40;;;;;;;;;;5014974;28;20037;-80
2021/09/03 13:15:25;;;;;;;1.00;0.40;;;;;;;;;;5031089;28;20309;-80
2021/09/03 13:17:51;;;;;;;0.40;0.40;;;;;;;;;;5031998;28;20044;-80
2021/09/03 13:20:18;;;;;;;0.40;0.40;;;;;;;;;;5029291;28;20048;-80
2021/09/03 13:22:45;;;;;;;0.47;0.47;;;;;;;;;;5062323;28;20057;-80
2021/09/03 13:25:12;;;;;;;0.57;0.40;;;;;;;;;;5046402;28;20378;-80
2021/09/03 13:27:39;;;;;;;0.80;0.40;;;;;;;;;;5031516;28;20042;-80
2021/09/03 13:30:05;;;;;;;0.40;0.40;;;;;;;;;;5060816;28;20037;-80
2021/09/03 13:32:32;;;;;;;0.93;0.40;;;;;;;;;;5012591;28;20060;-80
2021/09/03 13:34:59;;;;;;;0.47;0.47;;;;;;;;;;5031127;28;20042;-80
2021/09/03 13:37:26;;;;;;;0.40;0.40;;;;;;;;;;5030713;28;20037;-80
2021/09/03 13:39:53;;;;;;;0.80;0.40;;;;;;;;;;5032190;28;20519;-80
2021/09/03 13:42:20;;;;;;;0.32;0.32;;;;;;;;;;5030595;28;20096;-80
2021/09/03 13:44:46;;;;;;;0.40;0.40;;;;;;;;;;5029414;28;20041;-80
2021/09/03 13:47:15;;;;;;;0.40;0.40;;;;;;;;;;5030145;28;20072;-80
2021/09/03 13:49:41;;;;;;;0.40;0.40;;;;;;;;;;5028474;28;20099;-80
2021/09/03 13:52:08;;;;;;;0.60;0.40;;;;;;;;;;5031784;28;20486;-80
2021/09/03 13:54:34;;;;;;;0.40;0.40;;;;;;;;;;5059741;28;20116;-80
2021/09/03 13:57:01;;;;;;;0.40;0.40;;;;;;;;;;5029459;28;20038;-80
2021/09/03 13:59:28;;;;;;;1.38;0.40;;;;;;;;;;5030733;28;20482;-80
2021/09/03 14:01:54;;;;;;;0.40;0.40;;;;;;;;;;5029463;28;20091;-80
2021/09/03 14:04:21;;;;;;;0.82;0.40;;;;;;;;;;5031880;28;20042;-80
2021/09/03 14:06:48;;;;;;;1.23;0.40;;;;;;;;;;5027943;28;20041;-80
2021/09/03 14:09:15;;;;;;;1.42;0.40;;;;;;;;;;5031745;28;20509;-80
2021/09/03 14:11:44;;;;;;;0.50;0.50;;;;;;;;;;5061793;28;20044;-80
2021/09/03 14:14:11;;;;;;;0.40;0.40;;;;;;;;;;5027976;28;20128;-80
2021/09/03 14:16:39;;;;;;;0.40;0.40;;;;;;;;;;5030339;28;20037;-80
2021/09/03 14:19:05;;;;;;;0.40;0.40;;;;;;;;;;5028266;28;20029;-80
2021/09/03 14:21:32;;;;;;;0.40;0.40;;;;;;;;;;5029841;28;20076;-80
2021/09/03 14:23:58;;;;;;;0.40;0.40;;;;;;;;;;5031032;28;20486;-80
2021/09/03 14:26:25;;;;;;;0.40;0.40;;;;;;;;;;5028994;28;20037;-80
2021/09/03 14:28:52;;;;;;;0.50;0.50;;;;;;;;;;5030203;28;20042;-80
2021/09/03 14:31:18;;;;;;;0.52;0.40;;;;;;;;;;5045910;28;20482;-80
2021/09/03 14:33:45;;;;;;;1.65;0.40;;;;;;;;;;5029083;28;20037;-80
2021/09/03 14:36:12;;;;;;;1.63;0.50;;;;;;;;;;5026481;28;20041;-80
2021/09/03 14:38:39;;;;;;;0.40;0.40;;;;;;;;;;5024804;28;20056;-80
2021/09/03 14:41:05;;;;;;;0.40;0.40;;;;;;;;;;5029524;28;20482;-80
2021/09/03 14:43:33;;;;;;;0.40;0.40;;;;;;;;;;5031524;28;20042;-80
2021/09/03 14:46:00;;;;;;;0.50;0.50;;;;;;;;;;5028259;28;20044;-80
2021/09/03 14:48:27;;;;;;;0.52;0.40;;;;;;;;;;5032876;28;20489;-80